KCHS/CHS METAR and TAF weather

Enter ICAO airport designator
Station Type Date Time Source
KCHS METAR 2019/02/16 02:56 UTC NOAA

KCHS 160256Z 24005KT 10SM BKN050 BKN080 OVC100 16/09 A2990 RMK AO2 RAB21E43 SLP124 P0000 60000 T01560089 53007


Station Type Date Time Source
KCHS Decoded METAR 2019/02/16 02:56 UTC NOAA

CHARLESTON INT'L AIRPORT, SC, United States (KCHS) 32-54N 080-02W 13M
Feb 15, 2019 - 09:56 PM EST / 2019.02.16 0256 UTC
Wind: from the WSW (240 degrees) at 6 MPH (5 KT):0
Visibility: 10 mile(s):0
Sky conditions: overcast
Precipitation last hour: A trace
Temperature: 60.1 F (15.6 C)
Dew Point: 48.0 F (8.9 C)
Relative Humidity: 64%
Pressure (altimeter): 29.9 in. Hg (1012 hPa)
Pressure tendency: 0.02 inches (0.7 hPa) higher than three hours ago
ob: KCHS 160256Z 24005KT 10SM BKN050 BKN080 OVC100 16/09 A2990 RMK AO2 RAB21E43 SLP124 P0000 60000 T01560089 53007
cycle: 3

Station Type Date Time Source
KCHS TAF 2019/02/15 18:22 UTC NOAA

TAF KCHS 151720Z 1518/1618 21008KT P6SM SCT100 BKN200
FM160600 20007KT P6SM VCSH SCT025 BKN050
FM161200 22008KT P6SM VCSH SCT025 BKN050


Example: see airport list